Elk Garden, Virginia
Current Conditions -  °F | °C
As of 8:35 AM on Friday 28 Nov 2014 (Local Time) from KJFZ Reporting Station
Scattered Clouds Scattered Clouds  
Wind Chill: 25°   Ceiling: Unl
Heat Index: 25°   Visibility: 10mi
Dew Point: 19°   Wind: 3mph
Humidity: 79%   Direction: 290°WNW
Pressure: 30.3"   Gusts: NA
Location:  37.0328°N, 82.0042°W
Report Text: KJFZ 281335Z AUTO 29003KT 10SM SCT026 M04/M07 A3030 RMK AO2 T10401072
Loading
Personal Weather Stations






























Interactive Weather Map New forecast layout! Learn more

10-Day Weather Forecast

Advertisements
Track Severe Weather on mobile